createdAt,value
2019-03-25T00:00:32.767Z,9.2
2019-03-25T00:01:32.751Z,7.9
2019-03-25T00:02:32.791Z,7.7
2019-03-25T00:03:33.373Z,8.0
2019-03-25T00:04:32.977Z,8.5
2019-03-25T00:05:32.769Z,8.1
2019-03-25T00:06:33.004Z,9.5
2019-03-25T00:07:32.982Z,8.1
2019-03-25T00:08:33.219Z,8.7
2019-03-25T00:09:32.818Z,8.1
2019-03-25T00:10:33.674Z,8.6
2019-03-25T00:11:33.219Z,8.4
2019-03-25T00:12:33.314Z,7.2
2019-03-25T00:13:32.996Z,7.5
2019-03-25T00:14:32.870Z,8.0
2019-03-25T00:15:33.227Z,8.0
2019-03-25T00:16:33.519Z,7.4
2019-03-25T00:17:32.792Z,7.9
2019-03-25T00:18:33.237Z,7.7
2019-03-25T00:19:32.837Z,10.1
2019-03-25T00:20:32.903Z,7.6
2019-03-25T00:21:33.205Z,8.1
2019-03-25T00:22:32.856Z,8.1
2019-03-25T00:23:33.222Z,8.2
2019-03-25T00:24:38.198Z,7.5
2019-03-25T00:25:32.992Z,7.8
2019-03-25T00:26:32.877Z,7.6
2019-03-25T00:27:33.070Z,9.3
2019-03-25T00:28:32.893Z,7.2
2019-03-25T00:29:32.846Z,8.6
2019-03-25T00:30:33.052Z,8.5
2019-03-25T00:31:32.824Z,7.9
2019-03-25T00:32:33.073Z,7.5
2019-03-25T00:33:32.818Z,8.1
2019-03-25T00:34:32.993Z,8.7
2019-03-25T00:35:33.046Z,7.2
2019-03-25T00:36:33.028Z,8.0
2019-03-25T00:37:32.863Z,8.5
2019-03-25T00:38:33.116Z,7.3
2019-03-25T00:39:32.847Z,8.3
2019-03-25T00:40:33.119Z,7.5
2019-03-25T00:41:32.912Z,8.3
2019-03-25T00:42:32.918Z,7.7
2019-03-25T00:43:33.247Z,9.1
2019-03-25T00:44:33.302Z,7.2
2019-03-25T00:45:33.056Z,7.9
2019-03-25T00:46:32.913Z,8.0
2019-03-25T00:47:33.323Z,7.2
2019-03-25T00:48:33.391Z,6.7
2019-03-25T00:49:33.880Z,7.9
2019-03-25T00:50:32.912Z,7.5
2019-03-25T00:51:32.852Z,8.3
2019-03-25T00:52:32.922Z,8.1
2019-03-25T00:53:33.322Z,8.8
2019-03-25T00:54:33.353Z,7.7
2019-03-25T00:55:32.874Z,8.1
2019-03-25T00:56:32.956Z,7.5
2019-03-25T00:57:33.281Z,7.0
2019-03-25T00:58:32.967Z,8.0
2019-03-25T00:59:32.907Z,7.3
2019-03-25T01:00:33.217Z,7.8
2019-03-25T01:01:32.989Z,7.3
2019-03-25T01:02:33.307Z,7.8
2019-03-25T01:03:33.020Z,8.9
2019-03-25T01:04:33.161Z,8.3
2019-03-25T01:05:33.052Z,7.2
2019-03-25T01:06:32.946Z,8.7
2019-03-25T01:07:35.064Z,7.8
2019-03-25T01:08:33.333Z,8.9
2019-03-25T01:09:33.090Z,7.0
2019-03-25T01:10:33.029Z,8.4
2019-03-25T01:11:32.916Z,8.9
2019-03-25T01:12:33.654Z,7.8
2019-03-25T01:13:33.168Z,8.4
2019-03-25T01:14:33.133Z,7.9
2019-03-25T01:15:33.092Z,8.2
2019-03-25T01:16:33.416Z,8.1
2019-03-25T01:21:52.323Z,7.5
2019-03-25T01:22:02.501Z,6.8
2019-03-25T01:23:02.089Z,7.6
2019-03-25T01:24:02.356Z,8.3
2019-03-25T01:25:02.846Z,7.6
2019-03-25T01:26:02.234Z,8.0
2019-03-25T01:27:02.499Z,9.0
2019-03-25T01:28:02.279Z,8.3
2019-03-25T01:29:02.070Z,7.8
2019-03-25T01:30:06.044Z,8.1
2019-03-25T01:31:02.122Z,8.5
2019-03-25T01:32:02.494Z,7.8
2019-03-25T01:33:02.276Z,8.4
2019-03-25T01:34:02.103Z,8.6
2019-03-25T01:35:02.099Z,7.6
2019-03-25T01:36:02.508Z,8.0
2019-03-25T01:37:02.304Z,7.9
2019-03-25T01:38:02.495Z,9.1
2019-03-25T01:39:02.471Z,7.8
2019-03-25T01:40:02.339Z,7.9
2019-03-25T01:41:02.675Z,7.2
2019-03-25T01:42:02.131Z,8.0
2019-03-25T01:43:02.145Z,8.2
2019-03-25T01:44:02.348Z,7.1
2019-03-25T01:45:02.216Z,9.1
2019-03-25T01:46:02.488Z,8.1
2019-03-25T01:47:02.326Z,7.2
2019-03-25T01:48:02.203Z,7.7
2019-03-25T01:49:02.529Z,8.2
2019-03-25T01:50:02.152Z,9.0
2019-03-25T01:51:02.277Z,7.6
2019-03-25T01:52:02.278Z,8.1
2019-03-25T01:53:02.254Z,7.5
2019-03-25T01:54:02.159Z,7.9
2019-03-25T01:55:12.760Z,7.1
2019-03-25T01:56:02.545Z,8.1
2019-03-25T01:57:02.546Z,6.9
2019-03-25T01:58:02.182Z,7.0
2019-03-25T01:59:02.141Z,7.3
2019-03-25T02:00:02.213Z,7.4
2019-03-25T02:01:02.171Z,7.5
2019-03-25T02:02:02.409Z,7.7
2019-03-25T02:03:02.157Z,7.2
2019-03-25T02:04:02.597Z,8.4
2019-03-25T02:05:02.228Z,8.0
2019-03-25T02:06:02.137Z,7.6
2019-03-25T02:07:02.147Z,8.9
2019-03-25T02:08:02.178Z,7.9
2019-03-25T02:09:02.312Z,8.5
2019-03-25T02:10:03.268Z,6.2
2019-03-25T02:11:02.663Z,7.2
2019-03-25T02:12:02.163Z,6.0
2019-03-25T02:13:02.323Z,6.6
2019-03-25T02:14:02.217Z,7.2
2019-03-25T02:15:02.388Z,6.8
2019-03-25T02:16:02.714Z,7.8
2019-03-25T02:17:02.297Z,7.0
2019-03-25T02:18:02.359Z,6.2
2019-03-25T02:19:02.608Z,7.0
2019-03-25T02:20:02.401Z,7.1
2019-03-25T02:21:02.418Z,7.6
2019-03-25T02:22:02.236Z,6.3
2019-03-25T02:23:02.404Z,6.0
2019-03-25T02:24:02.198Z,7.3
2019-03-25T02:25:02.288Z,7.6
2019-03-25T02:26:02.242Z,6.5
2019-03-25T02:27:02.243Z,7.0
2019-03-25T02:28:02.739Z,5.7
2019-03-25T02:29:02.186Z,7.3
2019-03-25T02:30:02.683Z,7.7
2019-03-25T02:31:02.730Z,6.3
2019-03-25T02:32:04.429Z,5.8
2019-03-25T02:33:02.285Z,6.0
2019-03-25T02:34:02.422Z,6.6
2019-03-25T02:35:02.609Z,6.9
2019-03-25T02:36:02.302Z,6.2
2019-03-25T02:37:02.782Z,5.1
2019-03-25T02:38:02.496Z,6.7
2019-03-25T02:39:02.776Z,5.9
2019-03-25T02:40:02.291Z,7.1
2019-03-25T02:41:02.381Z,5.5
2019-03-25T02:42:55.269Z,6.5
2019-03-25T02:43:03.191Z,4.8
2019-03-25T02:44:03.439Z,7.5
2019-03-25T02:45:02.983Z,5.9
2019-03-25T02:46:03.025Z,4.7
2019-03-25T02:47:03.037Z,6.7
2019-03-25T02:48:03.024Z,5.9
2019-03-25T02:49:03.188Z,5.9
2019-03-25T02:50:03.195Z,4.8
2019-03-25T02:51:03.056Z,5.3
2019-03-25T02:52:03.204Z,6.8
2019-03-25T02:53:03.055Z,6.3
2019-03-25T02:54:03.002Z,6.8
2019-03-25T02:55:03.480Z,5.8
2019-03-25T02:56:03.637Z,6.5
2019-03-25T02:57:03.093Z,7.8
2019-03-25T02:58:03.167Z,4.9
2019-03-25T02:59:03.599Z,4.9
2019-03-25T03:00:03.086Z,5.3
2019-03-25T03:01:03.023Z,5.9
2019-03-25T03:02:03.210Z,5.9
2019-03-25T03:03:03.255Z,6.0
2019-03-25T03:04:03.517Z,5.5
2019-03-25T03:05:03.492Z,8.0
2019-03-25T03:06:03.205Z,5.9
2019-03-25T03:07:03.075Z,6.3
2019-03-25T03:08:03.080Z,6.1
2019-03-25T03:09:03.227Z,6.1
2019-03-25T03:10:03.336Z,6.7
2019-03-25T03:11:03.793Z,6.4
2019-03-25T03:12:03.014Z,6.1
2019-03-25T03:13:03.042Z,6.6
2019-03-25T03:14:03.021Z,5.8
2019-03-25T03:15:03.151Z,6.7
2019-03-25T03:16:03.061Z,6.7
2019-03-25T03:17:03.457Z,5.6
2019-03-25T03:18:03.103Z,6.7
2019-03-25T03:19:03.557Z,6.8
2019-03-25T03:20:03.484Z,6.2
2019-03-25T03:21:03.035Z,7.0
2019-03-25T03:22:05.677Z,6.3
2019-03-25T03:23:03.105Z,5.8
2019-03-25T03:24:03.528Z,6.0
2019-03-25T03:25:03.322Z,6.7
2019-03-25T03:26:03.714Z,6.3
2019-03-25T03:27:03.296Z,6.2
2019-03-25T03:28:03.473Z,7.2
2019-03-25T03:29:03.278Z,6.6
2019-03-25T03:30:03.325Z,7.3
2019-03-25T03:31:03.301Z,5.7
2019-03-25T03:36:58.928Z,6.3
2019-03-25T03:37:11.944Z,6.1
2019-03-25T03:38:12.850Z,7.4
2019-03-25T03:39:12.906Z,6.6
2019-03-25T03:40:12.976Z,4.6
2019-03-25T03:41:13.440Z,6.7
2019-03-25T03:42:12.896Z,7.8
2019-03-25T03:43:13.114Z,7.0
2019-03-25T03:44:12.929Z,5.9
2019-03-25T03:45:12.948Z,5.2
2019-03-25T03:46:13.051Z,8.0
2019-03-25T03:47:13.105Z,5.9
2019-03-25T03:48:12.904Z,6.3
2019-03-25T03:49:13.335Z,7.2
2019-03-25T03:50:14.011Z,6.0
2019-03-25T03:51:13.066Z,5.9
2019-03-25T03:52:12.936Z,5.1
2019-03-25T03:53:13.315Z,7.1
2019-03-25T03:54:13.365Z,5.7
2019-03-25T03:55:13.345Z,6.5
2019-03-25T03:56:14.355Z,6.4
2019-03-25T03:57:12.944Z,5.4
2019-03-25T03:58:12.957Z,7.0
2019-03-25T03:59:13.022Z,5.9
2019-03-25T04:00:13.218Z,6.1
2019-03-25T04:01:12.888Z,7.0
2019-03-25T04:02:13.228Z,5.5
2019-03-25T04:03:12.931Z,6.8
2019-03-25T04:04:12.937Z,6.3
2019-03-25T04:05:13.238Z,8.0
2019-03-25T04:06:12.964Z,6.6
2019-03-25T04:07:13.029Z,6.0
2019-03-25T04:08:13.049Z,6.5
2019-03-25T04:09:12.933Z,7.1
2019-03-25T04:10:13.142Z,6.6
2019-03-25T04:11:13.137Z,6.5
2019-03-25T04:12:13.022Z,6.6
2019-03-25T04:13:12.982Z,6.0
2019-03-25T04:14:12.973Z,6.9
2019-03-25T04:15:13.259Z,8.8
2019-03-25T04:16:13.029Z,5.9
2019-03-25T04:17:13.005Z,7.9
2019-03-25T04:18:13.023Z,6.9
2019-03-25T04:19:13.041Z,6.4
2019-03-25T04:20:23.704Z,7.1
2019-03-25T04:21:13.414Z,7.0
2019-03-25T04:22:12.963Z,7.7
2019-03-25T04:23:13.454Z,6.8
2019-03-25T04:24:13.190Z,6.0
2019-03-25T04:25:12.985Z,6.9
2019-03-25T04:26:27.249Z,8.6
2019-03-25T04:27:13.058Z,8.1
2019-03-25T04:28:13.078Z,6.7
2019-03-25T04:29:13.066Z,6.3
2019-03-25T04:30:13.430Z,8.3
2019-03-25T04:31:13.173Z,7.4
2019-03-25T04:32:13.502Z,8.3
2019-03-25T04:33:13.217Z,7.1
2019-03-25T04:34:13.049Z,6.9
2019-03-25T04:35:13.565Z,6.9
2019-03-25T04:36:13.384Z,7.5
2019-03-25T04:37:13.502Z,6.4
2019-03-25T04:38:23.468Z,6.9
2019-03-25T04:39:12.947Z,7.0
2019-03-25T04:40:13.001Z,7.8
2019-03-25T04:41:13.224Z,6.0
2019-03-25T04:42:12.974Z,5.6
2019-03-25T04:43:13.429Z,6.5
2019-03-25T04:44:12.986Z,6.9
2019-03-25T04:45:13.365Z,7.0
2019-03-25T04:46:13.260Z,6.4
2019-03-25T04:47:13.170Z,8.2
2019-03-25T04:48:13.897Z,7.7
2019-03-25T04:49:13.208Z,6.7
2019-03-25T04:50:13.187Z,6.7
2019-03-25T04:51:13.022Z,7.0
2019-03-25T04:52:12.979Z,6.5
2019-03-25T04:53:12.988Z,7.2
2019-03-25T04:54:13.011Z,7.2
2019-03-25T04:55:13.481Z,8.1
2019-03-25T04:56:13.256Z,7.1
2019-03-25T04:57:13.168Z,7.5
2019-03-25T04:58:13.187Z,7.4
2019-03-25T04:59:13.115Z,6.2
2019-03-25T05:00:13.159Z,6.4
2019-03-25T05:01:13.038Z,6.6
2019-03-25T05:02:13.139Z,6.4
2019-03-25T05:03:13.104Z,7.8
2019-03-25T05:04:13.493Z,6.3
2019-03-25T05:05:13.484Z,7.5
2019-03-25T05:06:13.200Z,7.2
2019-03-25T05:07:13.417Z,6.7
2019-03-25T05:08:13.096Z,7.7
2019-03-25T05:09:13.236Z,7.3
2019-03-25T05:10:13.227Z,7.5
2019-03-25T05:11:13.198Z,6.8
2019-03-25T05:12:13.477Z,6.1
2019-03-25T05:13:12.968Z,5.8
2019-03-25T05:14:13.378Z,6.1
2019-03-25T05:15:13.065Z,6.0
2019-03-25T05:16:13.050Z,5.8
2019-03-25T05:20:32.164Z,7.2
2019-03-25T05:20:42.098Z,6.6
2019-03-25T05:21:42.333Z,5.1
2019-03-25T05:22:42.328Z,5.5
2019-03-25T05:23:42.021Z,5.0
2019-03-25T05:24:42.346Z,6.2
2019-03-25T05:25:41.988Z,5.3
2019-03-25T05:26:50.282Z,5.6
2019-03-25T05:27:42.040Z,5.6
2019-03-25T05:28:42.385Z,5.6
2019-03-25T05:29:42.165Z,4.6
2019-03-25T05:30:42.014Z,5.1
2019-03-25T05:31:42.054Z,5.1
2019-03-25T05:32:42.697Z,4.9
2019-03-25T05:33:41.964Z,4.9
2019-03-25T05:34:42.468Z,7.3
2019-03-25T05:35:42.931Z,6.3
2019-03-25T05:36:42.081Z,9.3
2019-03-25T05:37:41.987Z,9.3
2019-03-25T05:38:42.213Z,12.6
2019-03-25T05:39:42.108Z,9.2
2019-03-25T05:40:43.391Z,13.3
2019-03-25T05:41:42.154Z,8.9
2019-03-25T05:42:41.951Z,8.4
2019-03-25T05:43:42.146Z,11.0
2019-03-25T05:44:42.361Z,7.9
2019-03-25T05:45:41.989Z,11.7
2019-03-25T05:46:42.163Z,10.1
2019-03-25T05:47:42.111Z,8.8
2019-03-25T05:48:42.136Z,11.7
2019-03-25T05:49:42.226Z,10.9
2019-03-25T05:50:42.133Z,8.0
2019-03-25T05:51:42.229Z,7.1
2019-03-25T05:52:42.000Z,8.2
2019-03-25T05:53:41.976Z,7.3
2019-03-25T05:54:41.982Z,9.3
2019-03-25T05:55:42.405Z,5.8
2019-03-25T05:56:42.358Z,10.3
2019-03-25T05:57:42.143Z,5.4
2019-03-25T05:58:42.004Z,7.5
2019-03-25T05:59:42.025Z,6.5
2019-03-25T06:00:42.414Z,6.2
2019-03-25T06:01:44.115Z,6.0
2019-03-25T06:02:42.424Z,7.7
2019-03-25T06:03:41.993Z,8.5
2019-03-25T06:04:41.985Z,4.2
2019-03-25T06:05:42.041Z,6.8
2019-03-25T06:06:42.003Z,6.2
2019-03-25T06:07:42.037Z,5.8
2019-03-25T06:08:42.865Z,7.2
2019-03-25T06:09:42.021Z,6.6
2019-03-25T06:10:42.041Z,7.4
2019-03-25T06:11:42.229Z,7.2
2019-03-25T06:12:42.715Z,7.3
2019-03-25T06:13:42.059Z,6.8
2019-03-25T06:14:42.458Z,6.4
2019-03-25T06:15:41.997Z,5.0
2019-03-25T06:16:42.024Z,4.6
2019-03-25T06:17:42.049Z,5.3
2019-03-25T06:18:42.386Z,5.4
2019-03-25T06:19:42.060Z,5.8
2019-03-25T06:20:41.986Z,5.2
2019-03-25T06:21:42.450Z,5.5
2019-03-25T06:22:44.239Z,3.5
2019-03-25T06:23:42.296Z,5.5
2019-03-25T06:24:42.472Z,6.4
2019-03-25T06:25:42.490Z,7.4
2019-03-25T06:26:41.985Z,6.1
2019-03-25T06:27:42.056Z,5.8
2019-03-25T06:28:42.006Z,6.4
2019-03-25T06:29:42.213Z,4.2
2019-03-25T06:30:42.031Z,4.5
2019-03-25T06:31:42.039Z,5.1
2019-03-25T06:32:42.130Z,7.3
2019-03-25T06:33:42.444Z,3.9
2019-03-25T06:34:42.216Z,6.5
2019-03-25T06:35:42.106Z,7.7
2019-03-25T06:36:42.480Z,11.0
2019-03-25T06:37:42.390Z,13.4
2019-03-25T06:38:42.104Z,11.7
2019-03-25T06:39:42.243Z,9.3
2019-03-25T06:40:42.154Z,7.9
2019-03-25T06:41:42.064Z,7.8
2019-03-25T06:42:42.242Z,6.0
2019-03-25T06:43:42.458Z,7.8
2019-03-25T06:44:42.264Z,5.2
2019-03-25T06:45:42.084Z,5.2
2019-03-25T06:46:42.463Z,5.0
2019-03-25T06:47:42.149Z,7.7
2019-03-25T06:48:42.801Z,4.7
2019-03-25T06:49:42.314Z,6.9
2019-03-25T06:50:42.475Z,7.5
2019-03-25T06:51:42.111Z,6.1
2019-03-25T06:52:42.228Z,6.7
2019-03-25T06:53:42.498Z,6.2
2019-03-25T06:54:42.278Z,4.4
2019-03-25T06:55:42.173Z,6.1
2019-03-25T06:56:42.137Z,6.1
2019-03-25T06:57:42.598Z,4.4
2019-03-25T06:58:42.960Z,6.0
2019-03-25T06:59:42.326Z,5.4
2019-03-25T07:00:42.303Z,4.7
2019-03-25T07:01:42.092Z,5.0
2019-03-25T07:02:42.274Z,3.4
2019-03-25T07:03:42.101Z,6.5
2019-03-25T07:04:42.492Z,4.1
2019-03-25T07:05:42.125Z,5.3
2019-03-25T07:06:42.279Z,4.9
2019-03-25T07:07:42.355Z,3.8
2019-03-25T07:08:42.309Z,4.3
2019-03-25T07:09:42.565Z,4.3
2019-03-25T07:10:42.575Z,4.4
2019-03-25T07:11:42.340Z,4.7
2019-03-25T07:12:42.449Z,4.5
2019-03-25T07:13:42.180Z,5.5
2019-03-25T07:14:42.204Z,4.5
2019-03-25T07:15:44.062Z,3.9
2019-03-25T07:16:42.142Z,4.1
2019-03-25T07:17:42.413Z,3.9
2019-03-25T07:18:42.153Z,4.2
2019-03-25T07:19:42.375Z,4.5
2019-03-25T07:20:42.583Z,4.9
2019-03-25T07:21:42.554Z,5.0
2019-03-25T07:22:42.157Z,5.3
2019-03-25T07:23:42.162Z,4.1
2019-03-25T07:24:42.168Z,4.4
2019-03-25T07:25:42.211Z,4.2
2019-03-25T07:26:42.180Z,5.0
2019-03-25T07:27:42.198Z,3.8
2019-03-25T07:28:42.201Z,3.7
2019-03-25T07:29:42.557Z,4.7
2019-03-25T07:30:42.591Z,5.0
2019-03-25T07:31:42.555Z,5.0
2019-03-25T07:32:42.171Z,4.5
2019-03-25T07:33:42.189Z,3.8
2019-03-25T07:34:42.586Z,3.8
2019-03-25T07:35:42.554Z,2.8
2019-03-25T07:36:42.668Z,6.0
2019-03-25T07:37:42.591Z,4.7
2019-03-25T07:38:42.204Z,4.5
2019-03-25T07:39:42.547Z,5.3
2019-03-25T07:40:42.367Z,5.0
2019-03-25T07:41:42.209Z,4.5
2019-03-25T07:44:23.921Z,4.3
2019-03-25T07:44:33.652Z,4.4
2019-03-25T07:45:33.682Z,4.2
2019-03-25T07:46:33.961Z,4.7
2019-03-25T07:47:33.616Z,4.7
2019-03-25T07:48:33.655Z,5.8
2019-03-25T07:49:33.645Z,3.9
2019-03-25T07:50:34.078Z,5.6
2019-03-25T07:51:34.073Z,3.8
2019-03-25T07:52:33.663Z,4.8
2019-03-25T07:54:47.266Z,4.3
2019-03-25T07:55:46.793Z,2.7
2019-03-25T07:56:47.015Z,3.9
2019-03-25T07:57:48.364Z,3.6
2019-03-25T07:58:46.977Z,4.2
2019-03-25T07:59:46.812Z,3.7
2019-03-25T08:00:46.945Z,3.5
2019-03-25T08:01:47.313Z,3.6
2019-03-25T08:02:47.274Z,4.7
2019-03-25T08:03:46.865Z,4.8
2019-03-25T08:04:47.224Z,2.9
2019-03-25T08:05:47.090Z,4.0
2019-03-25T08:06:47.079Z,3.5
2019-03-25T08:07:46.962Z,4.5
2019-03-25T08:08:46.883Z,4.2
2019-03-25T08:09:47.287Z,4.0
2019-03-25T08:10:47.059Z,3.3
2019-03-25T08:11:47.328Z,4.2
2019-03-25T08:12:46.917Z,4.3
2019-03-25T08:13:46.840Z,4.1
2019-03-25T08:14:49.385Z,3.1
2019-03-25T08:15:47.290Z,4.1
2019-03-25T08:16:46.815Z,3.2
2019-03-25T08:17:47.303Z,3.7
2019-03-25T08:18:46.857Z,3.9
2019-03-25T08:19:46.893Z,2.8
2019-03-25T08:20:47.324Z,3.5
2019-03-25T08:21:46.847Z,3.9
2019-03-25T08:22:46.991Z,3.4
2019-03-25T08:23:46.867Z,3.4
2019-03-25T08:24:47.317Z,4.3
2019-03-25T08:25:46.882Z,3.5
2019-03-25T08:26:46.860Z,4.0
2019-03-25T08:27:47.208Z,5.3
2019-03-25T08:28:46.901Z,3.3
2019-03-25T08:29:46.863Z,4.1
2019-03-25T08:30:46.893Z,4.1
2019-03-25T08:31:47.250Z,3.8
2019-03-25T08:32:46.880Z,4.0
2019-03-25T08:33:47.226Z,4.4
2019-03-25T08:34:47.030Z,4.8
2019-03-25T08:35:47.349Z,4.2
2019-03-25T08:36:46.870Z,4.4
2019-03-25T08:37:47.231Z,3.4
2019-03-25T08:38:47.113Z,3.5
2019-03-25T08:39:47.282Z,4.5
2019-03-25T08:40:46.876Z,3.1
2019-03-25T08:41:47.275Z,3.2
2019-03-25T08:42:47.061Z,3.4
2019-03-25T08:43:46.914Z,3.3
2019-03-25T08:44:47.041Z,2.6
2019-03-25T08:45:47.085Z,4.0
2019-03-25T08:46:46.932Z,4.1
2019-03-25T08:47:46.911Z,3.4
2019-03-25T08:48:46.955Z,4.2
2019-03-25T08:49:47.545Z,2.4
2019-03-25T08:50:47.277Z,3.0
2019-03-25T08:51:47.286Z,3.2
2019-03-25T08:52:47.007Z,4.0
2019-03-25T08:53:46.934Z,4.5
2019-03-25T08:54:47.117Z,2.9
2019-03-25T08:55:46.868Z,3.0
2019-03-25T08:56:47.429Z,3.6
2019-03-25T08:57:47.295Z,3.7
2019-03-25T08:58:46.978Z,3.6
2019-03-25T08:59:47.099Z,2.9
2019-03-25T09:00:46.956Z,3.7
2019-03-25T09:01:46.943Z,3.7
2019-03-25T09:02:46.913Z,3.4
2019-03-25T09:03:47.166Z,3.5
2019-03-25T09:04:47.200Z,3.1
2019-03-25T09:05:47.047Z,3.4
2019-03-25T09:06:47.977Z,3.9
2019-03-25T09:07:46.933Z,3.3
2019-03-25T09:08:47.096Z,3.5
2019-03-25T09:09:47.168Z,3.2
2019-03-25T09:10:46.986Z,4.5
2019-03-25T09:11:47.402Z,3.4
2019-03-25T09:12:47.189Z,3.5
2019-03-25T09:13:47.403Z,3.5
2019-03-25T09:14:47.224Z,3.4
2019-03-25T09:15:47.423Z,2.6
2019-03-25T09:16:46.988Z,3.9
2019-03-25T09:17:47.272Z,4.6
2019-03-25T09:18:47.004Z,3.5
2019-03-25T09:19:47.027Z,3.6
2019-03-25T09:20:47.035Z,3.6
2019-03-25T09:21:47.234Z,2.7
2019-03-25T09:22:47.237Z,3.5
2019-03-25T09:23:47.203Z,3.0
2019-03-25T09:24:46.971Z,3.8
2019-03-25T09:25:47.438Z,2.9
2019-03-25T09:26:46.996Z,2.9
2019-03-25T09:27:46.970Z,3.4
2019-03-25T09:28:46.987Z,3.5
2019-03-25T09:29:47.001Z,4.8
2019-03-25T09:30:47.061Z,3.0
2019-03-25T09:31:47.123Z,3.3
2019-03-25T09:32:47.018Z,3.6
2019-03-25T09:33:47.039Z,3.9
2019-03-25T09:34:46.977Z,3.6
2019-03-25T09:39:05.278Z,4.0
2019-03-25T09:39:18.252Z,4.0
2019-03-25T09:40:19.213Z,5.4
2019-03-25T09:41:19.284Z,3.8
2019-03-25T09:42:19.231Z,2.0
2019-03-25T09:43:20.325Z,3.6
2019-03-25T09:44:19.262Z,2.9
2019-03-25T09:45:19.273Z,3.3
2019-03-25T09:46:19.517Z,3.0
2019-03-25T09:49:23.134Z,2.8
2019-03-25T09:50:23.381Z,3.4
2019-03-25T09:51:23.014Z,3.5
2019-03-25T09:52:23.170Z,3.9
2019-03-25T09:53:22.987Z,3.5
2019-03-25T09:54:23.187Z,3.0
2019-03-25T09:55:23.352Z,2.8
2019-03-25T09:56:22.980Z,3.2
2019-03-25T09:57:23.039Z,4.8
2019-03-25T09:58:23.065Z,2.7
2019-03-25T09:59:23.195Z,3.3
2019-03-25T10:00:22.958Z,2.4
2019-03-25T10:01:23.024Z,2.7
2019-03-25T10:02:23.033Z,3.0
2019-03-25T10:03:22.993Z,4.6
2019-03-25T10:04:23.208Z,4.0
2019-03-25T10:05:23.099Z,2.7
2019-03-25T10:06:23.026Z,3.3
2019-03-25T10:10:41.564Z,3.5
2019-03-25T10:10:49.315Z,3.8
2019-03-25T10:11:49.553Z,3.1
2019-03-25T10:12:49.371Z,4.1
2019-03-25T10:13:49.320Z,2.7
2019-03-25T10:14:49.754Z,2.4
2019-03-25T10:15:49.397Z,2.5
2019-03-25T10:16:49.519Z,2.6
2019-03-25T10:17:49.323Z,3.3
2019-03-25T10:18:49.338Z,2.8
2019-03-25T10:21:02.115Z,2.4
2019-03-25T10:22:02.158Z,3.3
2019-03-25T10:23:02.379Z,2.8
2019-03-25T10:24:03.829Z,3.5
2019-03-25T10:25:02.188Z,3.2
2019-03-25T10:26:02.003Z,3.0
2019-03-25T10:27:02.162Z,3.1
2019-03-25T10:28:02.160Z,2.9
2019-03-25T10:29:02.034Z,2.4
2019-03-25T10:30:01.960Z,2.9
2019-03-25T10:31:54.738Z,3.0
2019-03-25T10:32:02.643Z,2.9
2019-03-25T10:33:02.850Z,3.4
2019-03-25T10:34:02.450Z,2.9
2019-03-25T10:35:02.609Z,3.8
2019-03-25T10:36:02.532Z,2.8
2019-03-25T10:37:02.441Z,3.3
2019-03-25T10:38:02.448Z,2.9
2019-03-25T10:39:02.666Z,3.8
2019-03-25T10:40:02.851Z,2.8
2019-03-25T10:41:02.450Z,3.2
2019-03-25T10:43:15.713Z,2.6
2019-03-25T10:44:16.117Z,2.1
2019-03-25T10:45:16.280Z,2.8
2019-03-25T10:46:15.783Z,2.0
2019-03-25T10:47:15.901Z,2.0
2019-03-25T10:48:15.782Z,2.7
2019-03-25T10:49:16.442Z,2.8
2019-03-25T10:50:15.734Z,2.7
2019-03-25T10:51:16.122Z,2.0
2019-03-25T10:52:15.897Z,3.9
2019-03-25T10:53:16.990Z,2.2
2019-03-25T10:54:16.079Z,2.9
2019-03-25T10:55:16.224Z,3.5
2019-03-25T10:56:15.830Z,3.0
2019-03-25T10:57:16.187Z,2.2
2019-03-25T10:58:15.921Z,2.5
2019-03-25T10:59:16.010Z,3.3
2019-03-25T11:00:15.812Z,3.8
2019-03-25T11:01:15.988Z,2.9
2019-03-25T11:02:15.788Z,3.4
2019-03-25T11:04:57.653Z,2.4
2019-03-25T11:05:05.595Z,2.7
2019-03-25T11:06:05.409Z,2.6
2019-03-25T11:07:05.466Z,2.7
2019-03-25T11:08:05.317Z,2.3
2019-03-25T11:09:05.358Z,2.6
2019-03-25T11:10:05.838Z,2.9
2019-03-25T11:11:06.291Z,2.8
2019-03-25T11:12:05.553Z,1.8
2019-03-25T11:13:05.351Z,2.2
2019-03-25T11:14:05.398Z,2.3
2019-03-25T11:15:05.844Z,2.3
2019-03-25T11:16:05.395Z,2.6
2019-03-25T11:17:05.412Z,2.8
2019-03-25T11:18:05.810Z,3.0
2019-03-25T11:19:05.927Z,2.1
2019-03-25T11:20:05.569Z,2.5
2019-03-25T11:21:05.343Z,2.1
2019-03-25T11:28:38.117Z,2.4
2019-03-25T11:28:51.002Z,3.4
2019-03-25T11:29:52.198Z,2.5
2019-03-25T11:30:52.204Z,3.0
2019-03-25T11:31:52.033Z,2.0
2019-03-25T11:32:52.023Z,2.7
2019-03-25T11:33:52.040Z,2.6
2019-03-25T11:34:52.465Z,1.8
2019-03-25T11:35:52.082Z,2.5
2019-03-25T11:37:02.072Z,2.0
2019-03-25T11:37:52.042Z,2.4
2019-03-25T11:38:52.519Z,2.8
2019-03-25T11:39:52.454Z,2.5
2019-03-25T11:40:52.066Z,2.7
2019-03-25T11:41:52.021Z,2.6
2019-03-25T11:42:52.070Z,2.2
2019-03-25T11:43:52.095Z,2.0
2019-03-25T11:44:52.318Z,2.5
2019-03-25T11:45:52.214Z,2.9
2019-03-25T11:46:52.606Z,2.7
2019-03-25T11:49:04.639Z,2.8
2019-03-25T11:50:04.536Z,2.9
2019-03-25T11:51:04.913Z,3.0
2019-03-25T11:52:04.882Z,2.6
2019-03-25T11:53:04.637Z,2.3
2019-03-25T11:54:04.735Z,1.8
2019-03-25T11:55:04.682Z,2.2
2019-03-25T11:56:04.531Z,2.9
2019-03-25T11:57:04.499Z,2.8
2019-03-25T11:58:04.525Z,2.7
2019-03-25T11:59:04.559Z,1.9
2019-03-25T12:00:04.696Z,2.1
2019-03-25T12:01:04.546Z,2.1
2019-03-25T12:02:04.540Z,2.5
2019-03-25T12:03:04.981Z,2.2
2019-03-25T12:04:05.364Z,1.9
2019-03-25T12:05:04.725Z,1.5
2019-03-25T12:06:04.711Z,2.9
2019-03-25T12:07:32.943Z,2.3
2019-03-25T12:08:04.988Z,1.9
2019-03-25T12:09:04.584Z,2.0
2019-03-25T12:10:04.926Z,2.3
2019-03-25T12:11:04.904Z,2.4
2019-03-25T12:12:04.534Z,2.7
2019-03-25T12:13:04.959Z,2.6
2019-03-25T12:14:04.538Z,2.2
2019-03-25T12:15:05.013Z,2.9
2019-03-25T12:16:04.593Z,3.3
2019-03-25T12:17:05.020Z,3.2
2019-03-25T12:18:04.594Z,2.3
2019-03-25T12:19:04.683Z,2.1
2019-03-25T12:20:06.299Z,2.5
2019-03-25T12:21:04.552Z,2.5
2019-03-25T12:22:04.503Z,2.0
2019-03-25T12:23:04.619Z,2.6
2019-03-25T12:24:04.956Z,2.4
2019-03-25T12:25:04.940Z,2.4
2019-03-25T12:40:19.564Z,2.1
2019-03-25T12:41:19.494Z,1.9
2019-03-25T12:42:19.565Z,2.1
2019-03-25T12:43:19.696Z,1.9
2019-03-25T12:44:19.515Z,2.6
2019-03-25T12:45:19.920Z,1.8
2019-03-25T12:46:19.518Z,3.0
2019-03-25T12:47:19.726Z,2.2
2019-03-25T12:48:19.747Z,3.2
2019-03-25T12:49:19.748Z,2.2
2019-03-25T12:50:19.526Z,1.7
2019-03-25T12:51:19.585Z,3.2
2019-03-25T12:52:19.509Z,2.3
2019-03-25T12:53:20.016Z,2.0
2019-03-25T12:54:19.524Z,2.0
2019-03-25T12:55:19.756Z,2.7
2019-03-25T12:56:19.556Z,2.7
2019-03-25T12:57:19.992Z,2.4
2019-03-25T12:58:29.919Z,2.2
2019-03-25T12:59:19.608Z,2.3
2019-03-25T13:00:19.781Z,2.4
2019-03-25T13:01:19.980Z,2.0
2019-03-25T13:02:19.558Z,2.2
2019-03-25T13:03:19.950Z,1.6
2019-03-25T13:04:19.553Z,2.4
2019-03-25T13:05:19.573Z,2.5
2019-03-25T13:06:19.573Z,2.1
2019-03-25T13:07:19.592Z,1.2
2019-03-25T13:08:20.001Z,2.4
2019-03-25T13:09:20.038Z,1.6
2019-03-25T13:10:19.580Z,2.0
2019-03-25T13:11:19.577Z,1.5
2019-03-25T13:12:19.593Z,2.0
2019-03-25T13:13:19.717Z,2.0
2019-03-25T13:14:19.570Z,1.7
2019-03-25T13:15:19.611Z,3.7
2019-03-25T13:16:20.315Z,1.6
2019-03-25T13:17:19.784Z,2.3
2019-03-25T13:18:20.006Z,1.6
2019-03-25T13:19:19.550Z,1.8
2019-03-25T13:20:22.614Z,2.7
2019-03-25T13:21:19.610Z,2.2
2019-03-25T13:22:20.014Z,1.9
2019-03-25T13:23:19.610Z,2.1
2019-03-25T13:24:19.807Z,2.2
2019-03-25T13:25:19.745Z,1.7
2019-03-25T13:26:35.787Z,2.5
2019-03-25T13:27:19.609Z,1.7
2019-03-25T13:28:19.562Z,3.2
2019-03-25T13:29:19.628Z,1.5
2019-03-25T13:30:19.762Z,2.2
2019-03-25T13:31:19.614Z,3.8
2019-03-25T13:32:19.968Z,1.9
2019-03-25T13:33:20.072Z,1.6
2019-03-25T13:34:20.062Z,1.6
2019-03-25T13:35:19.844Z,2.1
2019-03-25T13:36:19.692Z,1.6
2019-03-25T13:38:32.523Z,2.3
2019-03-25T13:39:33.062Z,1.8
2019-03-25T13:40:32.585Z,2.9
2019-03-25T13:41:32.746Z,2.0
2019-03-25T13:42:32.988Z,1.9
2019-03-25T13:43:33.141Z,3.5
2019-03-25T13:44:32.640Z,1.4
2019-03-25T13:45:32.970Z,1.3
2019-03-25T13:46:32.643Z,2.7
2019-03-25T13:47:32.797Z,2.0
2019-03-25T13:58:39.910Z,1.6
2019-03-25T13:59:40.782Z,2.2
2019-03-25T14:00:40.726Z,2.1
2019-03-25T14:01:40.803Z,2.6
2019-03-25T14:02:40.904Z,2.0
2019-03-25T14:03:42.760Z,2.3
2019-03-25T14:04:40.739Z,2.9
2019-03-25T14:05:41.873Z,1.9
2019-03-25T14:06:41.119Z,2.9
2019-03-25T14:07:40.994Z,2.1
2019-03-25T14:08:41.191Z,3.1
2019-03-25T14:09:41.036Z,2.3
2019-03-25T14:10:40.743Z,2.4
2019-03-25T14:11:40.808Z,2.7
2019-03-25T14:12:40.931Z,2.0
2019-03-25T14:13:48.745Z,1.5
2019-03-25T14:14:40.713Z,1.5
2019-03-25T14:15:41.031Z,2.4
2019-03-25T14:16:40.767Z,2.4
2019-03-25T14:17:41.956Z,2.1
2019-03-25T14:18:40.782Z,2.6
2019-03-25T14:19:41.121Z,2.4
2019-03-25T14:20:40.785Z,2.0
2019-03-25T14:21:40.800Z,2.3
2019-03-25T14:22:41.016Z,1.6
2019-03-25T14:23:40.776Z,2.5
2019-03-25T14:24:40.954Z,2.0
2019-03-25T14:25:41.180Z,2.0
2019-03-25T14:26:40.747Z,1.7
2019-03-25T14:27:40.969Z,2.2
2019-03-25T14:28:40.979Z,2.2
2019-03-25T14:29:40.961Z,1.7
2019-03-25T14:30:40.846Z,1.3
2019-03-25T14:31:40.784Z,2.0
2019-03-25T14:32:40.750Z,2.1
2019-03-25T14:33:40.748Z,1.4
2019-03-25T14:34:44.430Z,2.0
2019-03-25T14:35:40.790Z,1.5
2019-03-25T14:36:41.212Z,1.3
2019-03-25T14:37:40.975Z,2.1
2019-03-25T14:38:40.805Z,2.2
2019-03-25T14:39:40.972Z,1.8
2019-03-25T14:40:41.144Z,1.8